Home   Weather   USA   Ruidoso   Past weeks
Flag for USA

Past Weather in Ruidoso, New Mexico, USA — Yesterday and Last 2 Weeks

Currently: 46 °F. Clear. (Weather station: Ruidoso Regional, USA). See more current weather

Past Weather in Ruidoso — Graph

°F

Ruidoso Temperature Yesterday

Maximum temperature yesterday: 63 °F (at 12:55 pm)
Minimum temperature yesterday: 32 °F (at 12:15 am)
Average temperature yesterday: 47 °F

High & Low Weather Summary for the Past Weeks

 TemperatureHumidityPressure
High63 °F (Feb 23, 12:15 pm)86% (Feb 25, 7:35 am)30.41 "Hg (Feb 25, 7:35 am)
Low21 °F (Mar 1, 5:35 am)6% (Feb 27, 1:35 pm)29.81 "Hg (Feb 27, 3:15 pm)
Average41 °F34%30.16 "Hg
* Reported Feb 21 5:15 am — Mar 8 5:55 am, Ruidoso. Weather by CustomWeather, © 2021

Note: Actual official high and low records may vary slightly from our data, if they occured in-between our weather recording intervals... More about our weather records

Ruidoso Weather History for the Previous 24 Hours

Scroll right to see more
 ConditionsComfort  
Time TempWeatherWind HumidityBarometerVisibility
5:55 am
Mon, Mar 8
45 °FClear.12 mph29%30.29 "Hg10 mi
5:35 am45 °FClear.10 mph29%30.28 "Hg10 mi
5:15 am43 °FClear.9 mph31%30.27 "Hg10 mi
4:55 am43 °FClear.8 mph31%30.27 "Hg10 mi
4:35 am45 °FClear.8 mph29%30.28 "Hg10 mi
4:15 am43 °FClear.7 mph31%30.28 "Hg10 mi
3:55 am43 °FClear.9 mph31%30.28 "Hg10 mi
3:35 am43 °FClear.6 mph31%30.27 "Hg10 mi
3:15 am43 °FClear.6 mph31%30.28 "Hg10 mi
2:55 am41 °FClear.9 mph33%30.28 "Hg10 mi
2:35 am45 °FClear.8 mph29%30.28 "Hg10 mi
2:15 am43 °FClear.10 mph31%30.29 "Hg10 mi
1:55 am43 °FClear.9 mph34%30.30 "Hg10 mi
1:35 am45 °FClear.10 mph31%30.30 "Hg10 mi
1:15 am41 °FClear.9 mph33%30.30 "Hg10 mi
12:55 am41 °FClear.9 mph36%30.30 "Hg10 mi
12:35 am43 °FClear.6 mph34%30.30 "Hg10 mi
12:15 am41 °FClear.7 mph36%30.31 "Hg10 mi
11:55 pm
Sun, Mar 7
45 °FClear.9 mph31%30.31 "Hg10 mi
11:35 pm43 °FClear.12 mph34%30.31 "Hg10 mi
11:15 pm43 °FClear.10 mph34%30.32 "Hg10 mi
10:55 pm41 °FClear.10 mph36%30.31 "Hg10 mi
10:35 pm43 °FClear.10 mph34%30.32 "Hg10 mi
10:15 pm41 °FClear.8 mph36%30.32 "Hg10 mi
9:55 pm41 °FClear.8 mph39%30.32 "Hg10 mi
9:35 pm41 °FClear.8 mph39%30.32 "Hg10 mi
9:15 pm45 °FClear.7 mph34%30.31 "Hg10 mi
8:55 pm45 °FClear.7 mph34%30.31 "Hg10 mi
8:35 pm46 °FClear.7 mph32%30.31 "Hg10 mi
7:55 pm48 °FClear.7 mph32%30.30 "Hg10 mi
7:35 pm48 °FClear.5 mph32%30.30 "Hg10 mi
7:15 pm50 °FClear.5 mph28%30.29 "Hg10 mi
6:55 pm50 °FClear.No wind28%30.29 "Hg10 mi
6:35 pm54 °FClear.6 mph24%30.29 "Hg10 mi
6:15 pm54 °FClear.5 mph24%30.29 "Hg10 mi
5:55 pm55 °FSunny.No wind24%30.28 "Hg10 mi
5:35 pm57 °FSunny.6 mph23%30.27 "Hg10 mi
5:15 pm57 °FSunny.No wind23%30.26 "Hg10 mi
4:55 pm59 °FSunny.9 mph21%30.26 "Hg10 mi
4:35 pm61 °FSunny.5 mph20%30.26 "Hg10 mi
4:15 pm61 °FSunny.5 mph20%30.25 "Hg10 mi
3:55 pm63 °FSunny.8 mph17%30.25 "Hg10 mi
3:35 pm63 °FSunny.7 mph17%30.25 "Hg10 mi
3:15 pm63 °FSunny.7 mph17%30.24 "Hg10 mi
2:55 pm63 °FSunny.9 mph17%30.24 "Hg10 mi
2:35 pm63 °FSunny.9 mph19%30.24 "Hg10 mi
2:15 pm63 °FSunny.8 mph17%30.24 "Hg10 mi
1:55 pm63 °FSunny.5 mph17%30.24 "Hg10 mi
1:35 pm63 °FSunny.6 mph17%30.24 "Hg10 mi
1:15 pm63 °FSunny.9 mph17%30.25 "Hg10 mi
12:55 pm63 °FSunny.9 mph17%30.25 "Hg10 mi
12:35 pm59 °FSunny.8 mph18%30.26 "Hg10 mi
11:55 am61 °FSunny.8 mph19%30.28 "Hg10 mi
11:35 am59 °FSunny.No wind18%30.28 "Hg10 mi
11:15 am57 °FSunny.8 mph21%30.29 "Hg10 mi
10:55 am57 °FSunny.No wind21%30.29 "Hg10 mi
10:35 am55 °FSunny.9 mph23%30.29 "Hg10 mi
10:15 am55 °FSunny.10 mph24%30.29 "Hg10 mi
9:55 am54 °FSunny.8 mph26%30.29 "Hg10 mi
9:35 am52 °FSunny.N/A28%30.29 "Hg10 mi
9:15 am50 °FSunny.5 mph30%30.28 "Hg10 mi
8:55 am48 °FSunny.7 mph32%30.28 "Hg10 mi
8:35 am46 °FSunny.5 mph37%30.27 "Hg10 mi
8:15 am45 °FSunny.3 mph37%30.27 "Hg10 mi
7:55 am41 °FSunny.6 mph42%30.26 "Hg10 mi
7:35 am37 °FSunny.5 mph48%30.25 "Hg10 mi
7:15 am36 °FSunny.7 mph52%30.24 "Hg10 mi
Weather by CustomWeather, © 2021

See weather overview